< Typhoon 197119 1971 Season Typhoon 197121 >
Typhoon 197120 (POLLY)
General InformationTrack Information on Google Maps || Disaster Info.ResourceGoogle EarthGE AnimationAtom FeedGeoJSON
Detalied Best Track (Time Zone = UTC)
Year Month Day Hour Lat. Long. Pressure (hPa) Wind (kt) Class Image Chart
1971 8 3 12 11.0 142.7 1010 0 2 -- Chart
1971 8 3 18 11.3 144.3 1008 0 2 -- Chart
1971 8 4 00 12.3 145.7 1004 0 2 -- Chart
1971 8 4 06 13.5 146.5 1002 0 2 -- Chart
1971 8 4 12 14.2 146.3 1000 0 2 -- Chart
1971 8 4 18 14.5 145.5 1000 0 2 -- Chart
1971 8 5 00 15.5 144.7 1002 0 2 -- Chart
1971 8 5 06 16.1 143.6 1002 0 2 -- Chart
1971 8 5 12 16.2 142.3 1002 0 2 -- Chart
1971 8 5 18 16.4 141.0 1002 0 2 -- Chart
1971 8 6 00 16.5 140.5 1002 0 2 -- Chart
1971 8 6 06 17.3 138.8 1000 0 2 -- Chart
1971 8 6 12 18.0 137.5 1000 0 2 -- Chart
1971 8 6 18 18.5 136.4 998 0 2 -- Chart
1971 8 7 00 19.5 135.5 996 0 2 -- Chart
1971 8 7 06 20.3 135.0 996 0 2 -- Chart
1971 8 7 12 21.0 134.3 996 0 2 -- Chart
1971 8 7 18 21.6 133.4 996 0 2 -- Chart
1971 8 8 00 22.3 131.8 995 0 9 -- Chart
1971 8 8 06 23.5 131.3 990 0 9 -- Chart
1971 8 8 12 25.6 130.3 980 0 9 -- Chart
1971 8 8 18 26.7 128.2 985 0 9 -- Chart
1971 8 9 00 28.0 126.6 985 0 9 -- Chart
1971 8 9 06 29.0 125.5 980 0 9 -- Chart
1971 8 9 12 30.0 124.5 980 0 9 -- Chart
1971 8 9 18 31.3 124.0 980 0 9 -- Chart
1971 8 10 00 32.8 124.0 985 0 9 -- Chart
1971 8 10 06 34.5 124.5 985 0 9 -- Chart
1971 8 10 12 36.0 125.5 985 0 9 -- Chart
1971 8 10 18 37.1 127.0 992 0 9 -- Chart
1971 8 11 00 37.8 128.5 998 0 9 -- Chart
1971 8 11 06 38.6 130.5 998 0 9 -- Chart
1971 8 11 12 39.3 132.5 1000 0 2 -- Chart
1971 8 11 18 39.5 134.2 1002 0 6 -- Chart
1971 8 12 00 39.8 135.8 1002 0 6 -- Chart
1971 8 12 06 40.0 137.0 1002 0 6 -- Chart
1971 8 12 12 40.1 138.1 1004 0 6 -- Chart
1971 8 12 18 40.1 139.0 1004 0 6 -- Chart
1971 8 13 00 40.0 140.6 1005 0 6 -- Chart
Japan Meteorological Agency Best Track Data | Correction Date : 1989-06-01
< Typhoon 197119 1971 Season Typhoon 197121 >

Help